Key West, Iowa
Current Conditions -  °F | °C
As of 4:53 PM on Wednesday 22 Oct 2014 (Local Time) from KDBQ Reporting Station
Clear Clear  
Wind Chill: 57°   Ceiling: Unl
Heat Index: 57°   Visibility: 10mi
Dew Point: 38°   Wind: 10mph
Humidity: 49%   Direction: 160°SSE
Pressure: 30.21"   Gusts: NA
Location:  42.549°N, 90.6988°W
Report Text: KDBQ 222153Z 16009KT 10SM CLR 14/03 A3021 RMK AO2 SLP237 T01390033
Loading
Personal Weather Stations






























Interactive Weather Map
Tropical Storm Tracking
New forecast layout! Learn more

10-Day Weather Forecast

Advertisements
Track Severe Weather on mobile